createdAt,value
2023-02-01T00:04:59.584Z,98207.80
2023-02-01T00:10:05.342Z,98199.21
2023-02-01T00:15:12.443Z,98180.00
2023-02-01T00:20:14.335Z,98178.83
2023-02-01T00:25:16.307Z,98183.25
2023-02-01T00:30:19.178Z,98183.55
2023-02-01T00:35:21.419Z,98176.41
2023-02-01T00:40:23.789Z,98178.87
2023-02-01T00:45:26.289Z,98191.45
2023-02-01T00:50:28.252Z,98189.59
2023-02-01T00:55:30.196Z,98220.59
2023-02-01T01:00:32.512Z,98274.60
2023-02-01T01:05:37.517Z,98292.63
2023-02-01T01:10:40.130Z,98294.19
2023-02-01T01:15:43.066Z,98313.24
2023-02-01T01:20:45.492Z,98302.39
2023-02-01T01:25:47.507Z,98326.61
2023-02-01T01:30:50.314Z,98330.34
2023-02-01T01:35:52.572Z,98327.32
2023-02-01T01:40:55.012Z,98330.16
2023-02-01T01:45:58.693Z,98324.95
2023-02-01T01:51:07.222Z,98324.57
2023-02-01T01:56:09.852Z,98313.84
2023-02-01T02:01:14.606Z,98284.22
2023-02-01T02:06:29.343Z,98277.21
2023-02-01T02:11:31.867Z,98282.36
2023-02-01T02:16:56.768Z,98281.05
2023-02-01T02:22:28.026Z,98282.05
2023-02-01T02:27:33.668Z,98284.41
2023-02-01T02:33:12.049Z,98286.60
2023-02-01T02:38:22.877Z,98301.10
2023-02-01T02:43:59.342Z,98291.98
2023-02-01T02:49:34.656Z,98284.24
2023-02-01T02:54:48.029Z,98281.57
2023-02-01T03:00:10.807Z,98276.52
2023-02-01T03:05:13.844Z,98283.01
2023-02-01T03:10:38.358Z,98290.86
2023-02-01T03:15:48.753Z,98288.89
2023-02-01T03:20:55.679Z,98290.06
2023-02-01T03:26:01.093Z,98287.14
2023-02-01T03:31:04.860Z,98308.86
2023-02-01T03:36:23.852Z,98301.23
2023-02-01T03:41:36.657Z,98321.44
2023-02-01T03:47:24.165Z,98328.20
2023-02-01T03:52:37.403Z,98320.45
2023-02-01T03:57:47.089Z,98312.95
2023-02-01T04:02:49.874Z,98302.32
2023-02-01T04:07:52.472Z,98301.48
2023-02-01T04:12:54.506Z,98298.23
2023-02-01T04:17:56.866Z,98300.91
2023-02-01T04:22:59.223Z,98300.09
2023-02-01T04:28:02.142Z,98287.79
2023-02-01T04:33:07.418Z,98285.13
2023-02-01T04:38:09.709Z,98282.84
2023-02-01T04:43:11.563Z,98282.71
2023-02-01T04:48:14.080Z,98285.42
2023-02-01T04:53:16.738Z,98287.27
2023-02-01T04:58:18.782Z,98287.36
2023-02-01T05:03:20.704Z,98284.73
2023-02-01T05:08:26.457Z,98283.68
2023-02-01T05:13:47.255Z,98285.33
2023-02-01T05:18:49.539Z,98284.28
2023-02-01T05:24:10.413Z,98283.36
2023-02-01T05:29:12.795Z,98286.33
2023-02-01T05:34:16.645Z,98276.02
2023-02-01T05:39:18.966Z,98273.33
2023-02-01T05:44:21.134Z,98269.30
2023-02-01T05:49:22.939Z,98259.66
2023-02-01T05:54:24.970Z,98256.02
2023-02-01T05:59:27.215Z,98256.88
2023-02-01T06:04:29.070Z,98263.80
2023-02-01T06:09:31.606Z,98271.33
2023-02-01T06:14:33.477Z,98276.39
2023-02-01T06:19:35.554Z,98276.88
2023-02-01T06:24:37.588Z,98278.45
2023-02-01T06:29:40.337Z,98281.70
2023-02-01T06:34:43.049Z,98283.48
2023-02-01T06:39:45.095Z,98274.84
2023-02-01T06:44:48.118Z,98270.13
2023-02-01T06:49:50.018Z,98261.07
2023-02-01T06:54:51.960Z,98253.33
2023-02-01T06:59:54.159Z,98257.31
2023-02-01T07:04:56.565Z,98256.66
2023-02-01T07:09:58.471Z,98253.45
2023-02-01T07:15:02.771Z,98252.48
2023-02-01T07:20:05.275Z,98258.32
2023-02-01T07:25:07.968Z,98255.88
2023-02-01T07:30:11.044Z,98261.27
2023-02-01T07:35:15.154Z,98266.13
2023-02-01T07:40:17.440Z,98266.53
2023-02-01T07:45:21.873Z,98266.68
2023-02-01T07:50:24.294Z,98266.69
2023-02-01T07:55:26.477Z,98262.52
2023-02-01T08:00:47.145Z,98262.63
2023-02-01T08:05:49.357Z,98266.56
2023-02-01T08:10:51.939Z,98258.13
2023-02-01T08:15:53.890Z,98263.35
2023-02-01T08:20:56.329Z,98264.07
2023-02-01T08:26:31.903Z,98266.00
2023-02-01T08:31:34.157Z,98272.50
2023-02-01T08:36:36.834Z,98271.48
2023-02-01T08:41:39.408Z,98273.60
2023-02-01T08:46:42.224Z,98262.41
2023-02-01T08:51:45.390Z,98260.89
2023-02-01T08:56:47.828Z,98258.41
2023-02-01T09:01:50.005Z,98258.08
2023-02-01T09:13:58.460Z,98254.29
2023-02-01T09:19:25.835Z,98253.78
2023-02-01T09:24:22.742Z,98250.20
2023-02-01T09:29:24.721Z,98241.37
2023-02-01T09:34:27.235Z,98239.20
2023-02-01T09:39:31.159Z,98233.42
2023-02-01T09:45:09.487Z,98234.81
2023-02-01T09:50:22.264Z,98226.75
2023-02-01T09:55:43.790Z,98222.55
2023-02-01T10:00:53.594Z,98218.59
2023-02-01T10:06:31.106Z,98217.26
2023-02-01T10:12:04.420Z,98213.81
2023-02-01T10:17:16.008Z,98211.86
2023-02-01T10:23:10.273Z,98207.23
2023-02-01T10:28:05.832Z,98204.77
2023-02-01T10:33:24.735Z,98202.39
2023-02-01T10:38:32.986Z,98202.29
2023-02-01T10:43:41.435Z,98199.73
2023-02-01T10:48:43.860Z,98198.55
2023-02-01T10:53:53.505Z,98194.69
2023-02-01T10:59:07.181Z,98186.01
2023-02-01T11:04:16.081Z,98188.11
2023-02-01T11:09:26.721Z,98187.73
2023-02-01T11:14:37.265Z,98187.73
2023-02-01T11:19:39.660Z,98181.00
2023-02-01T11:24:45.659Z,98171.30
2023-02-01T11:29:52.363Z,98161.52
2023-02-01T11:35:03.019Z,98153.83
2023-02-01T11:40:28.229Z,98148.36
2023-02-01T11:45:34.840Z,98141.65
2023-02-01T11:50:43.331Z,98139.16
2023-02-01T11:56:01.677Z,98124.84
2023-02-01T12:01:32.163Z,98121.14
2023-02-01T12:07:26.628Z,98112.20
2023-02-01T12:12:46.056Z,98108.34
2023-02-01T12:17:56.913Z,98105.11
2023-02-01T12:23:17.464Z,98099.91
2023-02-01T12:28:50.056Z,98098.94
2023-02-01T12:34:20.529Z,98094.86
2023-02-01T12:39:27.846Z,98086.30
2023-02-01T12:44:38.326Z,98078.08
2023-02-01T12:49:51.970Z,98066.55
2023-02-01T12:55:04.197Z,98053.19
2023-02-01T13:00:33.911Z,98047.10
2023-02-01T13:05:53.954Z,98035.21
2023-02-01T13:11:05.818Z,98022.89
2023-02-01T13:16:36.816Z,98029.98
2023-02-01T13:21:44.841Z,98035.31
2023-02-01T13:26:48.342Z,98041.80
2023-02-01T13:32:17.304Z,98040.46
2023-02-01T13:38:37.368Z,98058.10
2023-02-01T13:43:50.531Z,98076.90
2023-02-01T13:49:03.342Z,98080.63
2023-02-01T13:54:07.086Z,98080.71
2023-02-01T14:00:00.944Z,98079.20
2023-02-01T14:05:44.021Z,98084.89
2023-02-01T14:11:02.449Z,98088.70
2023-02-01T14:16:17.141Z,98083.20
2023-02-01T14:21:47.077Z,98082.48
2023-02-01T14:27:00.954Z,98070.25
2023-02-01T14:32:26.808Z,98069.82
2023-02-01T14:37:37.581Z,98066.76
2023-02-01T14:42:48.532Z,98072.86
2023-02-01T14:48:14.649Z,98069.94
2023-02-01T14:53:34.644Z,98071.07
2023-02-01T14:59:11.082Z,98073.64
2023-02-01T15:04:22.839Z,98074.63
2023-02-01T15:09:38.400Z,98078.20
2023-02-01T15:14:53.318Z,98096.26
2023-02-01T15:19:58.373Z,98107.97
2023-02-01T15:25:01.723Z,98106.00
2023-02-01T15:30:20.044Z,98115.88
2023-02-01T15:36:29.849Z,98112.64
2023-02-01T15:41:44.648Z,98118.34
2023-02-01T15:46:51.905Z,98111.54
2023-02-01T15:51:57.953Z,98121.68
2023-02-01T15:57:04.355Z,98122.32
2023-02-01T16:02:32.038Z,98129.83
2023-02-01T16:08:04.572Z,98135.48
2023-02-01T16:13:08.382Z,98132.20
2023-02-01T16:18:12.522Z,98128.41
2023-02-01T16:23:16.907Z,98130.52
2023-02-01T16:28:20.020Z,98130.91
2023-02-01T16:33:31.744Z,98134.43
2023-02-01T16:38:34.137Z,98135.09
2023-02-01T16:43:39.594Z,98146.84
2023-02-01T16:48:52.081Z,98153.49
2023-02-01T16:53:55.594Z,98164.52
2023-02-01T16:58:59.073Z,98170.12
2023-02-01T17:04:01.560Z,98165.88
2023-02-01T17:09:05.328Z,98164.70
2023-02-01T17:14:22.663Z,98155.28
2023-02-01T17:19:26.122Z,98160.72
2023-02-01T17:24:46.563Z,98154.77
2023-02-01T17:29:55.532Z,98155.86
2023-02-01T17:35:01.296Z,98151.61
2023-02-01T17:40:04.150Z,98156.59
2023-02-01T17:45:40.738Z,98157.05
2023-02-01T17:50:47.372Z,98151.41
2023-02-01T17:55:51.180Z,98141.69
2023-02-01T18:00:55.561Z,98142.52
2023-02-01T18:06:01.936Z,98138.05
2023-02-01T18:11:10.389Z,98126.09
2023-02-01T18:16:33.791Z,98120.20
2023-02-01T18:21:43.131Z,98123.65
2023-02-01T18:26:49.090Z,98124.92
2023-02-01T18:31:51.888Z,98120.45
2023-02-01T18:36:56.661Z,98103.48
2023-02-01T18:41:59.910Z,98103.86
2023-02-01T18:47:05.415Z,98102.52
2023-02-01T18:52:16.467Z,98102.39
2023-02-01T18:57:19.818Z,98104.75
2023-02-01T19:02:22.298Z,98102.64
2023-02-01T19:07:24.348Z,98096.45
2023-02-01T19:12:27.707Z,98089.76
2023-02-01T19:17:30.552Z,98083.76
2023-02-01T19:22:34.252Z,98074.17
2023-02-01T19:27:36.747Z,98065.10
2023-02-01T19:32:39.567Z,98057.67
2023-02-01T19:37:43.879Z,98049.09
2023-02-01T19:42:47.127Z,98037.29
2023-02-01T19:47:49.861Z,98028.27
2023-02-01T19:52:53.055Z,98010.45
2023-02-01T19:57:55.606Z,98002.77
2023-02-01T20:02:56.966Z,97990.20
2023-02-01T20:07:59.059Z,97993.24
2023-02-01T20:13:01.867Z,97980.73
2023-02-01T20:18:04.831Z,97969.58
2023-02-01T20:23:08.287Z,97986.71
2023-02-01T20:28:12.773Z,97994.59
2023-02-01T20:33:16.582Z,97998.52
2023-02-01T20:38:18.773Z,97994.21
2023-02-01T20:43:21.489Z,97992.39
2023-02-01T20:48:24.472Z,97977.20
2023-02-01T20:53:27.606Z,97970.83
2023-02-01T20:58:30.880Z,97954.27
2023-02-01T21:03:35.374Z,97946.02
2023-02-01T21:08:41.689Z,97936.20
2023-02-01T21:13:50.810Z,97923.34
2023-02-01T21:18:56.490Z,97917.77
2023-02-01T21:24:00.045Z,97920.92
2023-02-01T21:29:17.507Z,97909.05
2023-02-01T21:34:20.574Z,97910.50
2023-02-01T21:39:23.310Z,97912.36
2023-02-01T21:44:30.867Z,97911.17
2023-02-01T21:49:36.097Z,97910.77
2023-02-01T21:54:45.145Z,97906.58
2023-02-01T21:59:47.694Z,97907.87
2023-02-01T22:04:50.710Z,97909.52
2023-02-01T22:09:57.443Z,97907.59
2023-02-01T22:15:00.445Z,97909.98
2023-02-01T22:20:05.249Z,97914.19
2023-02-01T22:25:09.602Z,97914.66
2023-02-01T22:30:12.683Z,97924.23
2023-02-01T22:35:15.371Z,97928.44
2023-02-01T22:40:18.363Z,97938.68
2023-02-01T22:45:20.940Z,97948.83
2023-02-01T22:50:23.055Z,97957.71
2023-02-01T22:55:26.256Z,97972.15
2023-02-01T23:00:30.127Z,97973.17
2023-02-01T23:05:32.104Z,97967.23
2023-02-01T23:10:39.744Z,97959.20
2023-02-01T23:15:42.014Z,97955.21
2023-02-01T23:20:44.467Z,97965.86
2023-02-01T23:25:51.683Z,97966.02
2023-02-01T23:30:55.633Z,97959.56
2023-02-01T23:36:00.881Z,97961.73
2023-02-01T23:41:05.651Z,97967.02
2023-02-01T23:46:07.988Z,97965.95
2023-02-01T23:51:14.201Z,97962.23
2023-02-01T23:56:25.948Z,97969.05
